^^
Saratoga-Weather Station Historical Data
Daily Summary for July 04, 2022 Units:  Both    English   Metric
Daily Weekly Monthly Yearly Custom
  High: Low: Average:
Temperature: 78.4 °F /  25.8 °C 56.5 °F /  13.6 °C 68.9 °F /  20.5 °C
Dew Point: 55.8 °F /  13.2 °C 51.3 °F /  10.7 °C 52.9 °F /  11.6 °C
Humidity: 84% 40% 59%
Wind Speed: 10.1mph /  16.3km/h - 2.2mph /  3.6km/h
Wind Gust: 12mph /  19.3km/h - -
Wind- - WSW
Pressure: 30.1 in /  1019.6 hPa 30 in /  1016.9 hPa -
Precipitation: 0 in /  0.0 mm    
Historical Graphs
 
 
Tabular Data for July 04, 2022
Time Temperature Dew Point Pressure Wind Wind Speed Wind Gust Humidity Rainfall Rate (Hourly) solar
00:03 64.9 °F /  18.3 °C 53.2 °F /  11.8 °C 30.1in /  1018.3hPa WNW 0.9mph /  1.4km/h 6mph /  9.7km/h 66% 0in /  0.0mm 0 W/m2
00:08 65.1 °F /  18.4 °C 53.4 °F /  11.9 °C 30.1in /  1018.3hPa West 0.9mph /  1.4km/h 6mph /  9.7km/h 66% 0in /  0.0mm 0 W/m2
00:13 65.1 °F /  18.4 °C 53.1 °F /  11.7 °C 30.1in /  1018.3hPa West 2mph /  3.2km/h 6mph /  9.7km/h 65% 0in /  0.0mm 0 W/m2
00:18 64.9 °F /  18.3 °C 52.9 °F /  11.6 °C 30.1in /  1018.3hPa West 2mph /  3.2km/h 3mph /  4.8km/h 65% 0in /  0.0mm 0 W/m2
00:23 64.8 °F /  18.2 °C 53.1 °F /  11.7 °C 30.1in /  1018.3hPa West 2mph /  3.2km/h 6mph /  9.7km/h 66% 0in /  0.0mm 0 W/m2
00:28 64.6 °F /  18.1 °C 52.9 °F /  11.6 °C 30.1in /  1018.6hPa West 2.9mph /  4.7km/h 4mph /  6.4km/h 66% 0in /  0.0mm 0 W/m2
00:33 64.2 °F /  17.9 °C 52.7 °F /  11.5 °C 30.1in /  1018.6hPa West 2mph /  3.2km/h 4mph /  6.4km/h 66% 0in /  0.0mm 0 W/m2
00:38 64 °F /  17.8 °C 52.5 °F /  11.4 °C 30.1in /  1018.6hPa West 2.9mph /  4.7km/h 3mph /  4.8km/h 66% 0in /  0.0mm 0 W/m2
00:43 64 °F /  17.8 °C 52.5 °F /  11.4 °C 30.1in /  1018.6hPa West 2.9mph /  4.7km/h 4mph /  6.4km/h 66% 0in /  0.0mm 0 W/m2
00:48 64 °F /  17.8 °C 52.5 °F /  11.4 °C 30.1in /  1018.6hPa West 2.9mph /  4.7km/h 3mph /  4.8km/h 66% 0in /  0.0mm 0 W/m2
00:53 64 °F /  17.8 °C 52.5 °F /  11.4 °C 30.1in /  1018.6hPa WSW 2.9mph /  4.7km/h 5mph /  8km/h 66% 0in /  0.0mm 0 W/m2
00:58 64 °F /  17.8 °C 52.5 °F /  11.4 °C 30.1in /  1018.6hPa West 2mph /  3.2km/h 3mph /  4.8km/h 66% 0in /  0.0mm 0 W/m2
01:03 64 °F /  17.8 °C 52.5 °F /  11.4 °C 30.1in /  1018.6hPa West 2mph /  3.2km/h 4mph /  6.4km/h 66% 0in /  0.0mm 0 W/m2
01:08 63.9 °F /  17.7 °C 52.7 °F /  11.5 °C 30.1in /  1018.6hPa West 2mph /  3.2km/h 3mph /  4.8km/h 67% 0in /  0.0mm 0 W/m2
01:13 63.5 °F /  17.5 °C 52.3 °F /  11.3 °C 30.1in /  1018.6hPa WSW 2mph /  3.2km/h 3mph /  4.8km/h 67% 0in /  0.0mm 0 W/m2
01:18 63.1 °F /  17.3 °C 52.3 °F /  11.3 °C 30.1in /  1018.6hPa West 2.9mph /  4.7km/h 4mph /  6.4km/h 68% 0in /  0.0mm 0 W/m2
01:23 63 °F /  17.2 °C 52.2 °F /  11.2 °C 30.1in /  1018.6hPa West 4mph /  6.4km/h 4mph /  6.4km/h 68% 0in /  0.0mm 0 W/m2
01:28 62.8 °F /  17.1 °C 52.5 °F /  11.4 °C 30.1in /  1018.6hPa WSW 2mph /  3.2km/h 4mph /  6.4km/h 69% 0in /  0.0mm 0 W/m2
01:33 62.4 °F /  16.9 °C 52.2 °F /  11.2 °C 30.1in /  1018.6hPa West 4mph /  6.4km/h 5mph /  8km/h 69% 0in /  0.0mm 0 W/m2
01:38 62.4 °F /  16.9 °C 52.2 °F /  11.2 °C 30.1in /  1018.6hPa WSW 4mph /  6.4km/h 7mph /  11.3km/h 69% 0in /  0.0mm 0 W/m2
01:43 62.4 °F /  16.9 °C 52.2 °F /  11.2 °C 30.1in /  1018.6hPa WSW 2.9mph /  4.7km/h 5mph /  8km/h 69% 0in /  0.0mm 0 W/m2
01:48 62.4 °F /  16.9 °C 52.2 °F /  11.2 °C 30.1in /  1018.6hPa WSW 2.9mph /  4.7km/h 5mph /  8km/h 69% 0in /  0.0mm 0 W/m2
01:53 62.4 °F /  16.9 °C 52.2 °F /  11.2 °C 30.1in /  1018.6hPa West 4mph /  6.4km/h 5mph /  8km/h 69% 0in /  0.0mm 0 W/m2
01:58 62.2 °F /  16.8 °C 52 °F /  11.1 °C 30.1in /  1018.6hPa West 2.9mph /  4.7km/h 7mph /  11.3km/h 69% 0in /  0.0mm 0 W/m2
02:03 62.2 °F /  16.8 °C 52 °F /  11.1 °C 30.1in /  1018.6hPa WSW 2mph /  3.2km/h 8mph /  12.9km/h 69% 0in /  0.0mm 0 W/m2
02:08 62.1 °F /  16.7 °C 51.8 °F /  11 °C 30.1in /  1018.6hPa WSW 2.9mph /  4.7km/h 5mph /  8km/h 69% 0in /  0.0mm 0 W/m2
02:13 62.1 °F /  16.7 °C 51.8 °F /  11 °C 30.1in /  1018.6hPa WSW 2.9mph /  4.7km/h 5mph /  8km/h 69% 0in /  0.0mm 0 W/m2
02:18 61.9 °F /  16.6 °C 52 °F /  11.1 °C 30.1in /  1018.6hPa WSW 4mph /  6.4km/h 4mph /  6.4km/h 70% 0in /  0.0mm 0 W/m2
02:23 61.9 °F /  16.6 °C 52 °F /  11.1 °C 30.1in /  1018.6hPa West 2mph /  3.2km/h 4mph /  6.4km/h 70% 0in /  0.0mm 0 W/m2
02:28 61.7 °F /  16.5 °C 51.8 °F /  11 °C 30.1in /  1018.6hPa West 2.9mph /  4.7km/h 4mph /  6.4km/h 70% 0in /  0.0mm 0 W/m2
02:33 61.5 °F /  16.4 °C 51.6 °F /  10.9 °C 30.1in /  1018.6hPa West 0.9mph /  1.4km/h 2mph /  3.2km/h 70% 0in /  0.0mm 0 W/m2
02:38 61.3 °F /  16.3 °C 51.8 °F /  11 °C 30.1in /  1018.6hPa West 2mph /  3.2km/h 3mph /  4.8km/h 71% 0in /  0.0mm 0 W/m2
02:43 61.2 °F /  16.2 °C 51.6 °F /  10.9 °C 30.1in /  1018.6hPa WSW 2mph /  3.2km/h 3mph /  4.8km/h 71% 0in /  0.0mm 0 W/m2
02:48 61 °F /  16.1 °C 52 °F /  11.1 °C 30.1in /  1018.6hPa West 0.9mph /  1.4km/h 3mph /  4.8km/h 72% 0in /  0.0mm 0 W/m2
02:53 60.6 °F /  15.9 °C 51.6 °F /  10.9 °C 30.1in /  1018.6hPa WSW 2mph /  3.2km/h 3mph /  4.8km/h 72% 0in /  0.0mm 0 W/m2
02:58 60.6 °F /  15.9 °C 51.6 °F /  10.9 °C 30.1in /  1018.6hPa WNW 0.9mph /  1.4km/h 2mph /  3.2km/h 72% 0in /  0.0mm 0 W/m2
03:03 60.6 °F /  15.9 °C 52 °F /  11.1 °C 30.1in /  1019.0hPa West 0.9mph /  1.4km/h 2mph /  3.2km/h 73% 0in /  0.0mm 0 W/m2
03:08 60.4 °F /  15.8 °C 51.8 °F /  11 °C 30.1in /  1019.0hPa West 0.9mph /  1.4km/h 2mph /  3.2km/h 73% 0in /  0.0mm 0 W/m2
03:13 60.4 °F /  15.8 °C 51.8 °F /  11 °C 30.1in /  1019.0hPa WSW 0.9mph /  1.4km/h 2mph /  3.2km/h 73% 0in /  0.0mm 0 W/m2
03:18 60.3 °F /  15.7 °C 51.6 °F /  10.9 °C 30.1in /  1019.0hPa WSW 0.9mph /  1.4km/h 1mph /  1.6km/h 73% 0in /  0.0mm 0 W/m2
03:23 59.9 °F /  15.5 °C 51.6 °F /  10.9 °C 30.1in /  1019.0hPa WSW 0.9mph /  1.4km/h 2mph /  3.2km/h 74% 0in /  0.0mm 0 W/m2
03:28 59.7 °F /  15.4 °C 51.4 °F /  10.8 °C 30.1in /  1019.0hPa Calm     74% 0in /  0.0mm 0 W/m2
03:33 59.5 °F /  15.3 °C 51.6 °F /  10.9 °C 30.1in /  1019.0hPa Calm     75% 0in /  0.0mm 0 W/m2
03:38 59.2 °F /  15.1 °C 51.6 °F /  10.9 °C 30.1in /  1019.0hPa Calm     76% 0in /  0.0mm 0 W/m2
03:44 58.8 °F /  14.9 °C 51.3 °F /  10.7 °C 30.1in /  1019.0hPa Calm     76% 0in /  0.0mm 0 W/m2
03:49 58.6 °F /  14.8 °C 51.4 °F /  10.8 °C 30.1in /  1019.0hPa Calm     77% 0in /  0.0mm 0 W/m2
03:54 58.5 °F /  14.7 °C 51.3 °F /  10.7 °C 30.1in /  1019.0hPa Calm     77% 0in /  0.0mm 0 W/m2
03:59 58.3 °F /  14.6 °C 51.4 °F /  10.8 °C 30.1in /  1019.0hPa WSW 1mph /  1.6km/h 1mph /  1.6km/h 78% 0in /  0.0mm 0 W/m2
04:04 58.1 °F /  14.5 °C 51.3 °F /  10.7 °C 30.1in /  1019.0hPa WSW 0.9mph /  1.4km/h 1mph /  1.6km/h 78% 0in /  0.0mm 0 W/m2
04:09 57.9 °F /  14.4 °C 51.4 °F /  10.8 °C 30.1in /  1019.0hPa WSW 0.9mph /  1.4km/h 1mph /  1.6km/h 79% 0in /  0.0mm 0 W/m2
04:14 57.7 °F /  14.3 °C 51.6 °F /  10.9 °C 30.1in /  1019.0hPa WSW 0.9mph /  1.4km/h 2mph /  3.2km/h 80% 0in /  0.0mm 0 W/m2
04:19 57.7 °F /  14.3 °C 51.6 °F /  10.9 °C 30.1in /  1019.0hPa WSW 0.9mph /  1.4km/h 1mph /  1.6km/h 80% 0in /  0.0mm 0 W/m2
04:24 57.7 °F /  14.3 °C 51.6 °F /  10.9 °C 30.1in /  1019.0hPa WSW 0.9mph /  1.4km/h 1mph /  1.6km/h 80% 0in /  0.0mm 0 W/m2
04:29 57.7 °F /  14.3 °C 51.6 °F /  10.9 °C 30.1in /  1019.0hPa Calm   3mph /  4.8km/h 80% 0in /  0.0mm 0 W/m2
04:34 57.7 °F /  14.3 °C 51.6 °F /  10.9 °C 30.1in /  1019.0hPa Calm   2mph /  3.2km/h 80% 0in /  0.0mm 0 W/m2
04:39 57.7 °F /  14.3 °C 51.6 °F /  10.9 °C 30.1in /  1019.0hPa Calm     80% 0in /  0.0mm 0 W/m2
04:44 57.6 °F /  14.2 °C 51.8 °F /  11 °C 30.1in /  1019.0hPa Calm     81% 0in /  0.0mm 0 W/m2
04:49 57.4 °F /  14.1 °C 51.6 °F /  10.9 °C 30.1in /  1019.0hPa Calm   2mph /  3.2km/h 81% 0in /  0.0mm 0 W/m2
04:54 57.2 °F /  14 °C 51.4 °F /  10.8 °C 30.1in /  1019.0hPa Calm     81% 0in /  0.0mm 0 W/m2
04:59 57 °F /  13.9 °C 51.6 °F /  10.9 °C 30.1in /  1019.0hPa Calm   2mph /  3.2km/h 82% 0in /  0.0mm 0 W/m2
05:04 57 °F /  13.9 °C 51.6 °F /  10.9 °C 30.1in /  1019.0hPa WNW 0.9mph /  1.4km/h 2mph /  3.2km/h 82% 0in /  0.0mm 0 W/m2
05:09 57.2 °F /  14 °C 51.8 °F /  11 °C 30.1in /  1019.0hPa WSW 0.9mph /  1.4km/h 2mph /  3.2km/h 82% 0in /  0.0mm 0 W/m2
05:14 57.4 °F /  14.1 °C 51.6 °F /  10.9 °C 30.1in /  1019.0hPa NW 0.9mph /  1.4km/h 2mph /  3.2km/h 81% 0in /  0.0mm 0 W/m2
05:19 57.6 °F /  14.2 °C 51.8 °F /  11 °C 30.1in /  1019.0hPa Calm     81% 0in /  0.0mm 0 W/m2
05:24 57.6 °F /  14.2 °C 51.8 °F /  11 °C 30.1in /  1019.0hPa Calm   1mph /  1.6km/h 81% 0in /  0.0mm 0 W/m2
05:29 57.6 °F /  14.2 °C 51.8 °F /  11 °C 30.1in /  1019.0hPa West 2mph /  3.2km/h 2mph /  3.2km/h 81% 0in /  0.0mm 0 W/m2
05:34 57.6 °F /  14.2 °C 51.8 °F /  11 °C 30.1in /  1019.3hPa Calm   1mph /  1.6km/h 81% 0in /  0.0mm 0 W/m2
05:39 57.6 °F /  14.2 °C 51.8 °F /  11 °C 30.1in /  1019.3hPa Calm   1mph /  1.6km/h 81% 0in /  0.0mm 5 W/m2
05:44 57.4 °F /  14.1 °C 51.6 °F /  10.9 °C 30.1in /  1019.3hPa Calm     81% 0in /  0.0mm 5 W/m2
05:49 57.2 °F /  14 °C 51.4 °F /  10.8 °C 30.1in /  1019.3hPa Calm   1mph /  1.6km/h 81% 0in /  0.0mm 7 W/m2
05:54 57 °F /  13.9 °C 51.6 °F /  10.9 °C 30.1in /  1019.3hPa Calm     82% 0in /  0.0mm 9 W/m2
05:59 56.8 °F /  13.8 °C 51.4 °F /  10.8 °C 30.1in /  1019.3hPa Calm   2mph /  3.2km/h 82% 0in /  0.0mm 11 W/m2
06:04 56.8 °F /  13.8 °C 51.4 °F /  10.8 °C 30.1in /  1019.3hPa Calm   1mph /  1.6km/h 82% 0in /  0.0mm 12 W/m2
06:09 56.7 °F /  13.7 °C 51.6 °F /  10.9 °C 30.1in /  1019.3hPa Calm     83% 0in /  0.0mm 14 W/m2
06:14 56.7 °F /  13.7 °C 51.6 °F /  10.9 °C 30.1in /  1019.3hPa Calm     83% 0in /  0.0mm 16 W/m2
06:19 56.5 °F /  13.6 °C 51.4 °F /  10.8 °C 30.1in /  1019.3hPa Calm     83% 0in /  0.0mm 18 W/m2
06:24 56.5 °F /  13.6 °C 51.4 °F /  10.8 °C 30.1in /  1019.3hPa Calm     83% 0in /  0.0mm 19 W/m2
06:29 56.5 °F /  13.6 °C 51.4 °F /  10.8 °C 30.1in /  1019.3hPa Calm     83% 0in /  0.0mm 21 W/m2
06:34 56.5 °F /  13.6 °C 51.6 °F /  10.9 °C 30.1in /  1019.3hPa Calm     84% 0in /  0.0mm 21 W/m2
06:39 56.5 °F /  13.6 °C 51.6 °F /  10.9 °C 30.1in /  1019.6hPa Calm     84% 0in /  0.0mm 23 W/m2
06:44 56.5 °F /  13.6 °C 51.4 °F /  10.8 °C 30.1in /  1019.6hPa Calm     83% 0in /  0.0mm 25 W/m2
06:49 56.5 °F /  13.6 °C 51.4 °F /  10.8 °C 30.1in /  1019.6hPa Calm     83% 0in /  0.0mm 25 W/m2
06:54 56.7 °F /  13.7 °C 51.8 °F /  11 °C 30.1in /  1019.6hPa Calm     84% 0in /  0.0mm 26 W/m2
06:59 56.8 °F /  13.8 °C 52 °F /  11.1 °C 30.1in /  1019.6hPa Calm     84% 0in /  0.0mm 26 W/m2
07:04 57 °F /  13.9 °C 52.2 °F /  11.2 °C 30.1in /  1019.6hPa Calm     84% 0in /  0.0mm 28 W/m2
07:09 57 °F /  13.9 °C 52 °F /  11.1 °C 30.1in /  1019.6hPa Calm     83% 0in /  0.0mm 30 W/m2
07:14 57.4 °F /  14.1 °C 52.3 °F /  11.3 °C 30.1in /  1019.6hPa Calm     83% 0in /  0.0mm 30 W/m2
07:19 57.7 °F /  14.3 °C 52.7 °F /  11.5 °C 30.1in /  1019.6hPa Calm     83% 0in /  0.0mm 33 W/m2
07:24 58.3 °F /  14.6 °C 53.1 °F /  11.7 °C 30.1in /  1019.6hPa Calm     83% 0in /  0.0mm 160 W/m2
07:29 59.2 °F /  15.1 °C 53.1 °F /  11.7 °C 30.1in /  1019.6hPa Calm     80% 0in /  0.0mm 174 W/m2
07:34 60.1 °F /  15.6 °C 53.6 °F /  12 °C 30.1in /  1019.6hPa Calm   2mph /  3.2km/h 79% 0in /  0.0mm 192 W/m2
07:39 61.3 °F /  16.3 °C 53.8 °F /  12.1 °C 30.1in /  1019.6hPa Calm   2mph /  3.2km/h 76% 0in /  0.0mm 207 W/m2
07:44 62.2 °F /  16.8 °C 53.8 °F /  12.1 °C 30.1in /  1019.6hPa Calm   2mph /  3.2km/h 74% 0in /  0.0mm 223 W/m2
07:49 63.3 °F /  17.4 °C 54.1 °F /  12.3 °C 30.1in /  1019.6hPa Calm     72% 0in /  0.0mm 236 W/m2
07:54 63.9 °F /  17.7 °C 54.3 °F /  12.4 °C 30.1in /  1019.6hPa Calm   1mph /  1.6km/h 71% 0in /  0.0mm 250 W/m2
07:59 64.8 °F /  18.2 °C 54.7 °F /  12.6 °C 30.1in /  1019.6hPa Calm   1mph /  1.6km/h 70% 0in /  0.0mm 262 W/m2
08:04 65.5 °F /  18.6 °C 54.7 °F /  12.6 °C 30.1in /  1019.6hPa ENE 2mph /  3.2km/h 2mph /  3.2km/h 68% 0in /  0.0mm 274 W/m2
08:09 66.2 °F /  19 °C 54.5 °F /  12.5 °C 30.1in /  1019.6hPa ENE 0.9mph /  1.4km/h 2mph /  3.2km/h 66% 0in /  0.0mm 288 W/m2
08:14 66.6 °F /  19.2 °C 54.9 °F /  12.7 °C 30.1in /  1019.6hPa ENE 2mph /  3.2km/h 3mph /  4.8km/h 66% 0in /  0.0mm 299 W/m2
08:19 66.4 °F /  19.1 °C 54.7 °F /  12.6 °C 30.1in /  1019.3hPa ENE 0.9mph /  1.4km/h 3mph /  4.8km/h 66% 0in /  0.0mm 313 W/m2
08:24 66.4 °F /  19.1 °C 55 °F /  12.8 °C 30.1in /  1019.6hPa Calm   2mph /  3.2km/h 67% 0in /  0.0mm 327 W/m2
08:29 66.4 °F /  19.1 °C 54.7 °F /  12.6 °C 30.1in /  1019.6hPa ENE 2mph /  3.2km/h 4mph /  6.4km/h 66% 0in /  0.0mm 120 W/m2
08:34 66.4 °F /  19.1 °C 54.7 °F /  12.6 °C 30.1in /  1019.6hPa Calm   4mph /  6.4km/h 66% 0in /  0.0mm 128 W/m2
08:39 66.2 °F /  19 °C 54.5 °F /  12.5 °C 30.1in /  1019.3hPa Calm   3mph /  4.8km/h 66% 0in /  0.0mm 58 W/m2
08:44 66 °F /  18.9 °C 54.3 °F /  12.4 °C 30.1in /  1019.6hPa Calm   1mph /  1.6km/h 66% 0in /  0.0mm 47 W/m2
08:49 66 °F /  18.9 °C 54 °F /  12.2 °C 30.1in /  1019.6hPa NNW 0.9mph /  1.4km/h 2mph /  3.2km/h 65% 0in /  0.0mm 47 W/m2
08:54 66.6 °F /  19.2 °C 54.5 °F /  12.5 °C 30.1in /  1019.6hPa NE 0.9mph /  1.4km/h 4mph /  6.4km/h 65% 0in /  0.0mm 47 W/m2
08:59 66.9 °F /  19.4 °C 54.9 °F /  12.7 °C 30.1in /  1019.6hPa NE 0.9mph /  1.4km/h 2mph /  3.2km/h 65% 0in /  0.0mm 44 W/m2
09:04 66.9 °F /  19.4 °C 55.2 °F /  12.9 °C 30.1in /  1019.6hPa NNW 0.9mph /  1.4km/h 3mph /  4.8km/h 66% 0in /  0.0mm 44 W/m2
09:09 66.9 °F /  19.4 °C 54.3 °F /  12.4 °C 30.1in /  1019.6hPa ENE 0.9mph /  1.4km/h 3mph /  4.8km/h 64% 0in /  0.0mm 44 W/m2
09:14 67.1 °F /  19.5 °C 54.9 °F /  12.7 °C 30.1in /  1019.6hPa Calm   2mph /  3.2km/h 65% 0in /  0.0mm 44 W/m2
09:19 66.9 °F /  19.4 °C 54.3 °F /  12.4 °C 30.1in /  1019.6hPa Calm   2mph /  3.2km/h 64% 0in /  0.0mm 44 W/m2
09:24 67.1 °F /  19.5 °C 55.8 °F /  13.2 °C 30.1in /  1019.6hPa NE 0.9mph /  1.4km/h 2mph /  3.2km/h 67% 0in /  0.0mm 44 W/m2
09:29 67.6 °F /  19.8 °C 54.7 °F /  12.6 °C 30.1in /  1019.6hPa ESE 2mph /  3.2km/h 4mph /  6.4km/h 63% 0in /  0.0mm 44 W/m2
09:34 67.8 °F /  19.9 °C 54.3 °F /  12.4 °C 30.1in /  1019.6hPa ENE 2mph /  3.2km/h 2mph /  3.2km/h 62% 0in /  0.0mm 44 W/m2
09:39 68.4 °F /  20.2 °C 54.9 °F /  12.7 °C 30.1in /  1019.6hPa East 0.9mph /  1.4km/h 4mph /  6.4km/h 62% 0in /  0.0mm 44 W/m2
09:44 68.9 °F /  20.5 °C 54 °F /  12.2 °C 30.1in /  1019.6hPa Calm   3mph /  4.8km/h 59% 0in /  0.0mm 46 W/m2
09:49 69.3 °F /  20.7 °C 54.3 °F /  12.4 °C 30.1in /  1019.6hPa ENE 4mph /  6.4km/h 4mph /  6.4km/h 59% 0in /  0.0mm 47 W/m2
09:54 69.1 °F /  20.6 °C 54.1 °F /  12.3 °C 30.1in /  1019.6hPa East 2mph /  3.2km/h 3mph /  4.8km/h 59% 0in /  0.0mm 56 W/m2
09:59 69.4 °F /  20.8 °C 54.5 °F /  12.5 °C 30.1in /  1019.3hPa Calm   1mph /  1.6km/h 59% 0in /  0.0mm 221 W/m2
10:04 69.8 °F /  21 °C 54.3 °F /  12.4 °C 30.1in /  1019.3hPa East 4mph /  6.4km/h 6mph /  9.7km/h 58% 0in /  0.0mm 492 W/m2
10:09 70.2 °F /  21.2 °C 54.1 °F /  12.3 °C 30.1in /  1019.3hPa ESE 0.9mph /  1.4km/h 2mph /  3.2km/h 57% 0in /  0.0mm 605 W/m2
10:14 70.2 °F /  21.2 °C 54.1 °F /  12.3 °C 30.1in /  1019.3hPa South 0.9mph /  1.4km/h 6mph /  9.7km/h 57% 0in /  0.0mm 58 W/m2
10:19 70.3 °F /  21.3 °C 53.4 °F /  11.9 °C 30.1in /  1019.3hPa NE 0.9mph /  1.4km/h 4mph /  6.4km/h 55% 0in /  0.0mm 134 W/m2
10:24 70.3 °F /  21.3 °C 54 °F /  12.2 °C 30.1in /  1019.3hPa East 0.9mph /  1.4km/h 5mph /  8km/h 56% 0in /  0.0mm 664 W/m2
10:29 70.7 °F /  21.5 °C 53.8 °F /  12.1 °C 30.1in /  1019.3hPa SE 0.9mph /  1.4km/h 2mph /  3.2km/h 55% 0in /  0.0mm 610 W/m2
10:34 71.2 °F /  21.8 °C 54.3 °F /  12.4 °C 30.1in /  1019.3hPa ESE 2.9mph /  4.7km/h 4mph /  6.4km/h 55% 0in /  0.0mm 650 W/m2
10:40 71.4 °F /  21.9 °C 54 °F /  12.2 °C 30.1in /  1019.3hPa Calm   2mph /  3.2km/h 54% 0in /  0.0mm 663 W/m2
10:45 71.6 °F /  22 °C 54.1 °F /  12.3 °C 30.1in /  1019.0hPa ENE 2.9mph /  4.7km/h 7mph /  11.3km/h 54% 0in /  0.0mm 689 W/m2
10:50 71.4 °F /  21.9 °C 54.5 °F /  12.5 °C 30.1in /  1019.0hPa ESE 2mph /  3.2km/h 6mph /  9.7km/h 55% 0in /  0.0mm 696 W/m2
10:55 71.6 °F /  22 °C 53.6 °F /  12 °C 30.1in /  1019.3hPa SSE 0.9mph /  1.4km/h 4mph /  6.4km/h 53% 0in /  0.0mm 715 W/m2
11:00 71.8 °F /  22.1 °C 53.8 °F /  12.1 °C 30.1in /  1019.0hPa South 0.9mph /  1.4km/h 6mph /  9.7km/h 53% 0in /  0.0mm 726 W/m2
11:05 72.1 °F /  22.3 °C 54.1 °F /  12.3 °C 30.1in /  1019.0hPa ESE 2.9mph /  4.7km/h 4mph /  6.4km/h 53% 0in /  0.0mm 744 W/m2
11:10 72.1 °F /  22.3 °C 54.1 °F /  12.3 °C 30.1in /  1019.0hPa NNE 2.9mph /  4.7km/h 3mph /  4.8km/h 53% 0in /  0.0mm 749 W/m2
11:15 72.1 °F /  22.3 °C 54.1 °F /  12.3 °C 30.1in /  1019.0hPa SE 2mph /  3.2km/h 6mph /  9.7km/h 53% 0in /  0.0mm 789 W/m2
11:20 72.1 °F /  22.3 °C 54.1 °F /  12.3 °C 30.1in /  1019.0hPa NNW 4mph /  6.4km/h 6mph /  9.7km/h 53% 0in /  0.0mm 937 W/m2
11:25 72.1 °F /  22.3 °C 53.6 °F /  12 °C 30.1in /  1019.3hPa NNE 2mph /  3.2km/h 4mph /  6.4km/h 52% 0in /  0.0mm 958 W/m2
11:30 72 °F /  22.2 °C 54 °F /  12.2 °C 30.1in /  1019.0hPa West 2mph /  3.2km/h 4mph /  6.4km/h 53% 0in /  0.0mm 204 W/m2
11:35 71.4 °F /  21.9 °C 53.4 °F /  11.9 °C 30.1in /  1019.0hPa WNW 4mph /  6.4km/h 7mph /  11.3km/h 53% 0in /  0.0mm 206 W/m2
11:40 70.9 °F /  21.6 °C 54 °F /  12.2 °C 30.1in /  1019.0hPa NW 2.9mph /  4.7km/h 3mph /  4.8km/h 55% 0in /  0.0mm 190 W/m2
11:45 71.1 °F /  21.7 °C 53.1 °F /  11.7 °C 30.1in /  1019.0hPa West 2.9mph /  4.7km/h 5mph /  8km/h 53% 0in /  0.0mm 849 W/m2
11:50 71.8 °F /  22.1 °C 53.8 °F /  12.1 °C 30.1in /  1019.0hPa WNW 2.9mph /  4.7km/h 4mph /  6.4km/h 53% 0in /  0.0mm 881 W/m2
11:55 72.3 °F /  22.4 °C 53.8 °F /  12.1 °C 30.1in /  1019.0hPa NW 0.9mph /  1.4km/h 5mph /  8km/h 52% 0in /  0.0mm 821 W/m2
12:00 72.3 °F /  22.4 °C 53.2 °F /  11.8 °C 30.1in /  1019.0hPa West 2mph /  3.2km/h 5mph /  8km/h 51% 0in /  0.0mm 146 W/m2
12:05 71.8 °F /  22.1 °C 54.3 °F /  12.4 °C 30.1in /  1019.0hPa NW 2.9mph /  4.7km/h 6mph /  9.7km/h 54% 0in /  0.0mm 902 W/m2
12:10 72.1 °F /  22.3 °C 53.1 °F /  11.7 °C 30.1in /  1019.0hPa WNW 4mph /  6.4km/h 8mph /  12.9km/h 51% 0in /  0.0mm 911 W/m2
12:15 72.9 °F /  22.7 °C 54.1 °F /  12.3 °C 30.1in /  1019.0hPa North 2.9mph /  4.7km/h 5mph /  8km/h 52% 0in /  0.0mm 911 W/m2
12:20 73 °F /  22.8 °C 53.8 °F /  12.1 °C 30.1in /  1019.0hPa NW 2mph /  3.2km/h 4mph /  6.4km/h 51% 0in /  0.0mm 918 W/m2
12:25 73.2 °F /  22.9 °C 54 °F /  12.2 °C 30.1in /  1019.0hPa West 2.9mph /  4.7km/h 6mph /  9.7km/h 51% 0in /  0.0mm 923 W/m2
12:30 73.2 °F /  22.9 °C 53.4 °F /  11.9 °C 30.1in /  1019.0hPa West 6.9mph /  11.1km/h 7mph /  11.3km/h 50% 0in /  0.0mm 896 W/m2
12:35 73.6 °F /  23.1 °C 53.2 °F /  11.8 °C 30.1in /  1019.0hPa West 2mph /  3.2km/h 11mph /  17.7km/h 49% 0in /  0.0mm 905 W/m2
12:40 73.4 °F /  23 °C 53.1 °F /  11.7 °C 30.1in /  1019.0hPa NE 0.9mph /  1.4km/h 3mph /  4.8km/h 49% 0in /  0.0mm 918 W/m2
12:45 73.9 °F /  23.3 °C 54.1 °F /  12.3 °C 30.1in /  1019.0hPa West 4mph /  6.4km/h 11mph /  17.7km/h 50% 0in /  0.0mm 940 W/m2
12:50 74.1 °F /  23.4 °C 53.8 °F /  12.1 °C 30.1in /  1019.0hPa WNW 2.9mph /  4.7km/h 7mph /  11.3km/h 49% 0in /  0.0mm 930 W/m2
12:55 74.1 °F /  23.4 °C 53.8 °F /  12.1 °C 30.1in /  1019.0hPa West 0.9mph /  1.4km/h 5mph /  8km/h 49% 0in /  0.0mm 918 W/m2
13:00 74.1 °F /  23.4 °C 53.8 °F /  12.1 °C 30.1in /  1019.0hPa WNW 0.9mph /  1.4km/h 3mph /  4.8km/h 49% 0in /  0.0mm 951 W/m2
13:05 74.3 °F /  23.5 °C 53.4 °F /  11.9 °C 30.1in /  1019.0hPa Calm   3mph /  4.8km/h 48% 0in /  0.0mm 202 W/m2
13:10 74.3 °F /  23.5 °C 53.4 °F /  11.9 °C 30.1in /  1019.0hPa WSW 2mph /  3.2km/h 5mph /  8km/h 48% 0in /  0.0mm 213 W/m2
13:15 74.5 °F /  23.6 °C 53.4 °F /  11.9 °C 30.1in /  1019.0hPa WNW 4mph /  6.4km/h 8mph /  12.9km/h 48% 0in /  0.0mm 942 W/m2
13:20 74.3 °F /  23.5 °C 53.4 °F /  11.9 °C 30.1in /  1019.0hPa NNW 4mph /  6.4km/h 10mph /  16.1km/h 48% 0in /  0.0mm 1000 W/m2
13:25 74.7 °F /  23.7 °C 53.6 °F /  12 °C 30.1in /  1019.0hPa WSW 4mph /  6.4km/h 4mph /  6.4km/h 48% 0in /  0.0mm 274 W/m2
13:30 73.9 °F /  23.3 °C 53.1 °F /  11.7 °C 30.1in /  1019.0hPa WNW 6mph /  9.7km/h 8mph /  12.9km/h 48% 0in /  0.0mm 172 W/m2
13:35 73.8 °F /  23.2 °C 52.9 °F /  11.6 °C 30.1in /  1019.0hPa West 2mph /  3.2km/h 8mph /  12.9km/h 48% 0in /  0.0mm 933 W/m2
13:40 73.9 °F /  23.3 °C 53.1 °F /  11.7 °C 30.1in /  1018.6hPa NW 2mph /  3.2km/h 8mph /  12.9km/h 48% 0in /  0.0mm 935 W/m2
13:45 74.5 °F /  23.6 °C 53.4 °F /  11.9 °C 30.1in /  1018.6hPa NNW 2.9mph /  4.7km/h 6mph /  9.7km/h 48% 0in /  0.0mm 953 W/m2
13:50 74.8 °F /  23.8 °C 53.8 °F /  12.1 °C 30.1in /  1018.6hPa West 10.1mph /  16.3km/h 12mph /  19.3km/h 48% 0in /  0.0mm 935 W/m2
13:55 74.8 °F /  23.8 °C 53.2 °F /  11.8 °C 30.1in /  1018.6hPa NW 2.9mph /  4.7km/h 9mph /  14.5km/h 47% 0in /  0.0mm 930 W/m2
14:00 75.4 °F /  24.1 °C 53.2 °F /  11.8 °C 30.1in /  1018.6hPa NW 6mph /  9.7km/h 12mph /  19.3km/h 46% 0in /  0.0mm 937 W/m2
14:05 75.6 °F /  24.2 °C 53.2 °F /  11.8 °C 30.1in /  1018.6hPa East 4.9mph /  7.9km/h 7mph /  11.3km/h 46% 0in /  0.0mm 868 W/m2
14:10 75.7 °F /  24.3 °C 52.9 °F /  11.6 °C 30.1in /  1018.6hPa NNW 0.9mph /  1.4km/h 4mph /  6.4km/h 45% 0in /  0.0mm 921 W/m2
14:15 75.9 °F /  24.4 °C 53.1 °F /  11.7 °C 30.1in /  1018.6hPa NW 2.9mph /  4.7km/h 9mph /  14.5km/h 45% 0in /  0.0mm 925 W/m2
14:20 76.1 °F /  24.5 °C 53.2 °F /  11.8 °C 30.1in /  1018.3hPa NNW 4.9mph /  7.9km/h 11mph /  17.7km/h 45% 0in /  0.0mm 944 W/m2
14:25 76.3 °F /  24.6 °C 54 °F /  12.2 °C 30.1in /  1018.3hPa WNW 4.9mph /  7.9km/h 5mph /  8km/h 46% 0in /  0.0mm 784 W/m2
14:30 76.3 °F /  24.6 °C 52.7 °F /  11.5 °C 30.1in /  1018.3hPa WSW 4mph /  6.4km/h 6mph /  9.7km/h 44% 0in /  0.0mm 854 W/m2
14:35 76.3 °F /  24.6 °C 52.7 °F /  11.5 °C 30.1in /  1018.3hPa WNW 4mph /  6.4km/h 9mph /  14.5km/h 44% 0in /  0.0mm 888 W/m2
14:40 76.3 °F /  24.6 °C 52.7 °F /  11.5 °C 30.1in /  1018.3hPa West 8.1mph /  13km/h 8mph /  12.9km/h 44% 0in /  0.0mm 856 W/m2
14:45 76.3 °F /  24.6 °C 53.4 °F /  11.9 °C 30.1in /  1018.3hPa WSW 2mph /  3.2km/h 9mph /  14.5km/h 45% 0in /  0.0mm 854 W/m2
14:50 76.3 °F /  24.6 °C 51.4 °F /  10.8 °C 30.1in /  1018.3hPa WSW 8.1mph /  13km/h 11mph /  17.7km/h 42% 0in /  0.0mm 599 W/m2
14:55 75.9 °F /  24.4 °C 51.8 °F /  11 °C 30.1in /  1018.0hPa NW 2mph /  3.2km/h 4mph /  6.4km/h 43% 0in /  0.0mm 842 W/m2
15:00 76.1 °F /  24.5 °C 52.5 °F /  11.4 °C 30.1in /  1018.0hPa NW 2mph /  3.2km/h 8mph /  12.9km/h 44% 0in /  0.0mm 865 W/m2
15:05 76.3 °F /  24.6 °C 52.2 °F /  11.2 °C 30.1in /  1018.0hPa SW 2mph /  3.2km/h 3mph /  4.8km/h 43% 0in /  0.0mm 791 W/m2
15:10 76.5 °F /  24.7 °C 52.9 °F /  11.6 °C 30.1in /  1018.0hPa NW 0.9mph /  1.4km/h 4mph /  6.4km/h 44% 0in /  0.0mm 868 W/m2
15:15 76.6 °F /  24.8 °C 52.5 °F /  11.4 °C 30.1in /  1018.0hPa West 2.9mph /  4.7km/h 5mph /  8km/h 43% 0in /  0.0mm 904 W/m2
15:21 77.4 °F /  25.2 °C 51.8 °F /  11 °C 30.1in /  1018.0hPa WSW 2.9mph /  4.7km/h 8mph /  12.9km/h 41% 0in /  0.0mm 823 W/m2
15:26 77.5 °F /  25.3 °C 52 °F /  11.1 °C 30.1in /  1018.0hPa WNW 2mph /  3.2km/h 12mph /  19.3km/h 41% 0in /  0.0mm 835 W/m2
15:31 77.5 °F /  25.3 °C 52 °F /  11.1 °C 30.1in /  1018.0hPa WSW 4mph /  6.4km/h 8mph /  12.9km/h 41% 0in /  0.0mm 791 W/m2
15:36 77.5 °F /  25.3 °C 52.7 °F /  11.5 °C 30.1in /  1018.0hPa West 4mph /  6.4km/h 9mph /  14.5km/h 42% 0in /  0.0mm 842 W/m2
15:41 77.4 °F /  25.2 °C 52.5 °F /  11.4 °C 30.1in /  1017.6hPa NNE 2.9mph /  4.7km/h 5mph /  8km/h 42% 0in /  0.0mm 875 W/m2
15:46 77.7 °F /  25.4 °C 52.2 °F /  11.2 °C 30.1in /  1017.6hPa WNW 6.9mph /  11.1km/h 7mph /  11.3km/h 41% 0in /  0.0mm 817 W/m2
15:51 78.3 °F /  25.7 °C 53.2 °F /  11.8 °C 30.1in /  1017.6hPa NNW 4mph /  6.4km/h 4mph /  6.4km/h 42% 0in /  0.0mm 860 W/m2
15:56 78.3 °F /  25.7 °C 54 °F /  12.2 °C 30.1in /  1017.6hPa SW 4mph /  6.4km/h 4mph /  6.4km/h 43% 0in /  0.0mm 856 W/m2
16:01 78.3 °F /  25.7 °C 52.7 °F /  11.5 °C 30.1in /  1017.6hPa NW 4mph /  6.4km/h 6mph /  9.7km/h 41% 0in /  0.0mm 759 W/m2
16:06 78.3 °F /  25.7 °C 53.2 °F /  11.8 °C 30.1in /  1017.6hPa West 6mph /  9.7km/h 9mph /  14.5km/h 42% 0in /  0.0mm 738 W/m2
16:11 77.5 °F /  25.3 °C 52 °F /  11.1 °C 30.1in /  1017.6hPa WSW 6.9mph /  11.1km/h 9mph /  14.5km/h 41% 0in /  0.0mm 701 W/m2
16:16 77.2 °F /  25.1 °C 52.3 °F /  11.3 °C 30.1in /  1017.6hPa WSW 2.9mph /  4.7km/h 5mph /  8km/h 42% 0in /  0.0mm 744 W/m2
16:21 77.5 °F /  25.3 °C 52.7 °F /  11.5 °C 30.1in /  1017.6hPa WSW 8.1mph /  13km/h 12mph /  19.3km/h 42% 0in /  0.0mm 677 W/m2
16:26 77.5 °F /  25.3 °C 53.2 °F /  11.8 °C 30.1in /  1017.6hPa NW 2mph /  3.2km/h 6mph /  9.7km/h 43% 0in /  0.0mm 759 W/m2
16:31 77.7 °F /  25.4 °C 52.2 °F /  11.2 °C 30in /  1017.3hPa WNW 0.9mph /  1.4km/h 10mph /  16.1km/h 41% 0in /  0.0mm 587 W/m2
16:36 77.7 °F /  25.4 °C 53.4 °F /  11.9 °C 30in /  1017.3hPa WSW 4mph /  6.4km/h 7mph /  11.3km/h 43% 0in /  0.0mm 784 W/m2
16:41 78.1 °F /  25.6 °C 52.5 °F /  11.4 °C 30in /  1017.3hPa WNW 2.9mph /  4.7km/h 9mph /  14.5km/h 41% 0in /  0.0mm 752 W/m2
16:46 78.3 °F /  25.7 °C 52.7 °F /  11.5 °C 30in /  1017.3hPa North 2.9mph /  4.7km/h 9mph /  14.5km/h 41% 0in /  0.0mm 733 W/m2
16:51 78.3 °F /  25.7 °C 52.7 °F /  11.5 °C 30in /  1017.3hPa SW 6mph /  9.7km/h 8mph /  12.9km/h 41% 0in /  0.0mm 752 W/m2
16:56 78.4 °F /  25.8 °C 52.2 °F /  11.2 °C 30in /  1017.3hPa West 4mph /  6.4km/h 9mph /  14.5km/h 40% 0in /  0.0mm 677 W/m2
17:01 77.9 °F /  25.5 °C 52.9 °F /  11.6 °C 30in /  1017.3hPa NW 2.9mph /  4.7km/h 8mph /  12.9km/h 42% 0in /  0.0mm 322 W/m2
17:06 77.9 °F /  25.5 °C 52.9 °F /  11.6 °C 30in /  1017.3hPa NNW 4mph /  6.4km/h 9mph /  14.5km/h 42% 0in /  0.0mm 708 W/m2
17:11 78.4 °F /  25.8 °C 53.4 °F /  11.9 °C 30in /  1017.3hPa WSW 8.1mph /  13km/h 11mph /  17.7km/h 42% 0in /  0.0mm 663 W/m2
17:16 78.1 °F /  25.6 °C 53.8 °F /  12.1 °C 30in /  1016.9hPa West 2.9mph /  4.7km/h 6mph /  9.7km/h 43% 0in /  0.0mm 592 W/m2
17:21 77.7 °F /  25.4 °C 53.4 °F /  11.9 °C 30in /  1016.9hPa West 4mph /  6.4km/h 11mph /  17.7km/h 43% 0in /  0.0mm 503 W/m2
17:26 77.7 °F /  25.4 °C 53.4 °F /  11.9 °C 30in /  1016.9hPa WNW 6.9mph /  11.1km/h 8mph /  12.9km/h 43% 0in /  0.0mm 663 W/m2
17:31 77.7 °F /  25.4 °C 53.4 °F /  11.9 °C 30in /  1016.9hPa NNW 2.9mph /  4.7km/h 8mph /  12.9km/h 43% 0in /  0.0mm 578 W/m2
17:36 77.9 °F /  25.5 °C 53.6 °F /  12 °C 30in /  1016.9hPa WNW 8.9mph /  14.3km/h 9mph /  14.5km/h 43% 0in /  0.0mm 636 W/m2
17:41 77.7 °F /  25.4 °C 52.2 °F /  11.2 °C 30in /  1016.9hPa WSW 4.9mph /  7.9km/h 8mph /  12.9km/h 41% 0in /  0.0mm 489 W/m2
17:46 77.7 °F /  25.4 °C 52.9 °F /  11.6 °C 30in /  1016.9hPa West 6mph /  9.7km/h 6mph /  9.7km/h 42% 0in /  0.0mm 403 W/m2
17:51 77.7 °F /  25.4 °C 54.1 °F /  12.3 °C 30in /  1016.9hPa West 2mph /  3.2km/h 9mph /  14.5km/h 44% 0in /  0.0mm 552 W/m2
17:56 77.7 °F /  25.4 °C 54.1 °F /  12.3 °C 30in /  1016.9hPa SSW 2mph /  3.2km/h 4mph /  6.4km/h 44% 0in /  0.0mm 584 W/m2
18:01 77.7 °F /  25.4 °C 54.1 °F /  12.3 °C 30in /  1016.9hPa WNW 4mph /  6.4km/h 7mph /  11.3km/h 44% 0in /  0.0mm 563 W/m2
18:06 78.1 °F /  25.6 °C 54.3 °F /  12.4 °C 30in /  1016.9hPa WSW 4.9mph /  7.9km/h 10mph /  16.1km/h 44% 0in /  0.0mm 545 W/m2
18:11 78.3 °F /  25.7 °C 53.2 °F /  11.8 °C 30in /  1016.9hPa WSW 2mph /  3.2km/h 7mph /  11.3km/h 42% 0in /  0.0mm 534 W/m2
18:16 78.3 °F /  25.7 °C 53.2 °F /  11.8 °C 30in /  1016.9hPa NW 4mph /  6.4km/h 10mph /  16.1km/h 42% 0in /  0.0mm 497 W/m2
18:21 78.3 °F /  25.7 °C 52.7 °F /  11.5 °C 30in /  1016.9hPa West 6mph /  9.7km/h 7mph /  11.3km/h 41% 0in /  0.0mm 483 W/m2
18:26 78.1 °F /  25.6 °C 53.1 °F /  11.7 °C 30in /  1016.9hPa West 4mph /  6.4km/h 10mph /  16.1km/h 42% 0in /  0.0mm 403 W/m2
18:31 78.1 °F /  25.6 °C 53.1 °F /  11.7 °C 30in /  1016.9hPa NW 0.9mph /  1.4km/h 6mph /  9.7km/h 42% 0in /  0.0mm 434 W/m2
18:36 78.1 °F /  25.6 °C 53.1 °F /  11.7 °C 30in /  1016.9hPa West 4mph /  6.4km/h 10mph /  16.1km/h 42% 0in /  0.0mm 431 W/m2
18:41 78.1 °F /  25.6 °C 53.8 °F /  12.1 °C 30in /  1016.9hPa WSW 2mph /  3.2km/h 4mph /  6.4km/h 43% 0in /  0.0mm 399 W/m2
18:46 78.3 °F /  25.7 °C 54 °F /  12.2 °C 30in /  1016.9hPa NW 2mph /  3.2km/h 10mph /  16.1km/h 43% 0in /  0.0mm 367 W/m2
18:51 78.3 °F /  25.7 °C 52.7 °F /  11.5 °C 30in /  1016.9hPa West 4mph /  6.4km/h 8mph /  12.9km/h 41% 0in /  0.0mm 276 W/m2
18:56 78.1 °F /  25.6 °C 53.1 °F /  11.7 °C 30in /  1016.9hPa WSW 8.9mph /  14.3km/h 10mph /  16.1km/h 42% 0in /  0.0mm 69 W/m2
19:01 77.7 °F /  25.4 °C 53.4 °F /  11.9 °C 30in /  1016.9hPa WNW 2mph /  3.2km/h 9mph /  14.5km/h 43% 0in /  0.0mm 60 W/m2
19:06 77.5 °F /  25.3 °C 52.7 °F /  11.5 °C 30in /  1016.9hPa NW 4mph /  6.4km/h 6mph /  9.7km/h 42% 0in /  0.0mm 58 W/m2
19:11 77.5 °F /  25.3 °C 52.7 °F /  11.5 °C 30in /  1016.9hPa West 2.9mph /  4.7km/h 8mph /  12.9km/h 42% 0in /  0.0mm 58 W/m2
19:16 77.7 °F /  25.4 °C 52.2 °F /  11.2 °C 30in /  1016.9hPa WNW 4mph /  6.4km/h 5mph /  8km/h 41% 0in /  0.0mm 56 W/m2
19:21 77.7 °F /  25.4 °C 52.9 °F /  11.6 °C 30in /  1016.9hPa WNW 2mph /  3.2km/h 3mph /  4.8km/h 42% 0in /  0.0mm 54 W/m2
19:26 77.7 °F /  25.4 °C 52.9 °F /  11.6 °C 30in /  1016.9hPa West 2.9mph /  4.7km/h 9mph /  14.5km/h 42% 0in /  0.0mm 53 W/m2
19:31 77.5 °F /  25.3 °C 52.7 °F /  11.5 °C 30in /  1016.9hPa West 6mph /  9.7km/h 8mph /  12.9km/h 42% 0in /  0.0mm 51 W/m2
19:36 77.2 °F /  25.1 °C 51.6 °F /  10.9 °C 30in /  1016.9hPa WSW 4mph /  6.4km/h 9mph /  14.5km/h 41% 0in /  0.0mm 49 W/m2
19:41 76.6 °F /  24.8 °C 51.3 °F /  10.7 °C 30in /  1016.9hPa WNW 4mph /  6.4km/h 7mph /  11.3km/h 41% 0in /  0.0mm 47 W/m2
19:46 76.6 °F /  24.8 °C 51.8 °F /  11 °C 30in /  1016.9hPa West 0.9mph /  1.4km/h 9mph /  14.5km/h 42% 0in /  0.0mm 47 W/m2
19:51 76.6 °F /  24.8 °C 51.8 °F /  11 °C 30in /  1017.3hPa Calm   6mph /  9.7km/h 42% 0in /  0.0mm 47 W/m2
19:56 76.6 °F /  24.8 °C 52.5 °F /  11.4 °C 30in /  1017.3hPa West 4mph /  6.4km/h 8mph /  12.9km/h 43% 0in /  0.0mm 46 W/m2
20:01 76.5 °F /  24.7 °C 52.3 °F /  11.3 °C 30in /  1017.3hPa WNW 0.9mph /  1.4km/h 7mph /  11.3km/h 43% 0in /  0.0mm 123 W/m2
20:06 76.3 °F /  24.6 °C 52.2 °F /  11.2 °C 30in /  1017.3hPa WNW 2.9mph /  4.7km/h 5mph /  8km/h 43% 0in /  0.0mm 42 W/m2
20:11 76.1 °F /  24.5 °C 51.3 °F /  10.7 °C 30in /  1016.9hPa WNW 4mph /  6.4km/h 7mph /  11.3km/h 42% 0in /  0.0mm 40 W/m2
20:16 75.9 °F /  24.4 °C 51.8 °F /  11 °C 30in /  1017.3hPa WNW 4mph /  6.4km/h 6mph /  9.7km/h 43% 0in /  0.0mm 39 W/m2
20:21 75.7 °F /  24.3 °C 51.6 °F /  10.9 °C 30in /  1017.3hPa NNW 0.9mph /  1.4km/h 7mph /  11.3km/h 43% 0in /  0.0mm 37 W/m2
20:26 75.9 °F /  24.4 °C 52.5 °F /  11.4 °C 30in /  1017.3hPa West 2.9mph /  4.7km/h 6mph /  9.7km/h 44% 0in /  0.0mm 35 W/m2
20:31 75.6 °F /  24.2 °C 52.7 °F /  11.5 °C 30in /  1017.3hPa WNW 2mph /  3.2km/h 3mph /  4.8km/h 45% 0in /  0.0mm 33 W/m2
20:36 75.4 °F /  24.1 °C 52.5 °F /  11.4 °C 30in /  1017.3hPa West 4mph /  6.4km/h 5mph /  8km/h 45% 0in /  0.0mm 33 W/m2
20:41 74.8 °F /  23.8 °C 52.7 °F /  11.5 °C 30in /  1017.3hPa West 2mph /  3.2km/h 4mph /  6.4km/h 46% 0in /  0.0mm 32 W/m2
20:46 74.7 °F /  23.7 °C 52.5 °F /  11.4 °C 30in /  1017.3hPa West 2mph /  3.2km/h 4mph /  6.4km/h 46% 0in /  0.0mm 39 W/m2
20:51 74.5 °F /  23.6 °C 52.9 °F /  11.6 °C 30in /  1017.3hPa West 0.9mph /  1.4km/h 3mph /  4.8km/h 47% 0in /  0.0mm 58 W/m2
20:56 74.1 °F /  23.4 °C 52.5 °F /  11.4 °C 30.1in /  1017.6hPa West 2.9mph /  4.7km/h 4mph /  6.4km/h 47% 0in /  0.0mm 53 W/m2
21:01 73.9 °F /  23.3 °C 52.5 °F /  11.4 °C 30.1in /  1017.6hPa WSW 2.9mph /  4.7km/h 4mph /  6.4km/h 47% 0in /  0.0mm 44 W/m2
21:06 73.6 °F /  23.1 °C 52.7 °F /  11.5 °C 30.1in /  1017.6hPa WSW 0.9mph /  1.4km/h 4mph /  6.4km/h 48% 0in /  0.0mm 37 W/m2
21:11 73.2 °F /  22.9 °C 52.9 °F /  11.6 °C 30.1in /  1017.6hPa West 2mph /  3.2km/h 4mph /  6.4km/h 49% 0in /  0.0mm 30 W/m2
21:16 73 °F /  22.8 °C 52.7 °F /  11.5 °C 30.1in /  1017.6hPa West 2.9mph /  4.7km/h 6mph /  9.7km/h 49% 0in /  0.0mm 16 W/m2
21:21 72.7 °F /  22.6 °C 52.9 °F /  11.6 °C 30.1in /  1018.0hPa West 2.9mph /  4.7km/h 3mph /  4.8km/h 50% 0in /  0.0mm 11 W/m2
21:26 72.1 °F /  22.3 °C 53.1 °F /  11.7 °C 30.1in /  1018.0hPa West 2.9mph /  4.7km/h 6mph /  9.7km/h 51% 0in /  0.0mm 11 W/m2
21:31 72 °F /  22.2 °C 53.4 °F /  11.9 °C 30.1in /  1018.0hPa West 4mph /  6.4km/h 6mph /  9.7km/h 52% 0in /  0.0mm 7 W/m2
21:36 71.6 °F /  22 °C 53.1 °F /  11.7 °C 30.1in /  1018.0hPa WNW 2mph /  3.2km/h 6mph /  9.7km/h 52% 0in /  0.0mm 7 W/m2
21:41 71.4 °F /  21.9 °C 52.9 °F /  11.6 °C 30.1in /  1018.0hPa West 2.9mph /  4.7km/h 4mph /  6.4km/h 52% 0in /  0.0mm 5 W/m2
21:46 71.1 °F /  21.7 °C 53.1 °F /  11.7 °C 30.1in /  1018.0hPa West 2.9mph /  4.7km/h 4mph /  6.4km/h 53% 0in /  0.0mm 0 W/m2
21:51 70.9 °F /  21.6 °C 53.4 °F /  11.9 °C 30.1in /  1018.0hPa West 2.9mph /  4.7km/h 7mph /  11.3km/h 54% 0in /  0.0mm 0 W/m2
21:56 70.7 °F /  21.5 °C 53.2 °F /  11.8 °C 30.1in /  1018.3hPa WSW 2.9mph /  4.7km/h 6mph /  9.7km/h 54% 0in /  0.0mm 0 W/m2
22:01 70.3 °F /  21.3 °C 53.4 °F /  11.9 °C 30.1in /  1018.3hPa West 2.9mph /  4.7km/h 4mph /  6.4km/h 55% 0in /  0.0mm 0 W/m2
22:06 70.2 °F /  21.2 °C 53.2 °F /  11.8 °C 30.1in /  1018.3hPa WSW 2mph /  3.2km/h 7mph /  11.3km/h 55% 0in /  0.0mm 0 W/m2
22:11 70 °F /  21.1 °C 53.1 °F /  11.7 °C 30.1in /  1018.3hPa West 2mph /  3.2km/h 4mph /  6.4km/h 55% 0in /  0.0mm 0 W/m2
22:16 69.8 °F /  21 °C 52.9 °F /  11.6 °C 30.1in /  1018.3hPa West 2.9mph /  4.7km/h 7mph /  11.3km/h 55% 0in /  0.0mm 0 W/m2
22:21 69.6 °F /  20.9 °C 53.2 °F /  11.8 °C 30.1in /  1018.3hPa WNW 2.9mph /  4.7km/h 6mph /  9.7km/h 56% 0in /  0.0mm 0 W/m2
22:26 69.6 °F /  20.9 °C 53.2 °F /  11.8 °C 30.1in /  1018.3hPa West 2.9mph /  4.7km/h 7mph /  11.3km/h 56% 0in /  0.0mm 0 W/m2
22:31 69.4 °F /  20.8 °C 53.6 °F /  12 °C 30.1in /  1018.3hPa West 4mph /  6.4km/h 6mph /  9.7km/h 57% 0in /  0.0mm 0 W/m2
22:36 69.3 °F /  20.7 °C 53.4 °F /  11.9 °C 30.1in /  1018.6hPa West 2mph /  3.2km/h 4mph /  6.4km/h 57% 0in /  0.0mm 0 W/m2
22:41 69.1 °F /  20.6 °C 53.6 °F /  12 °C 30.1in /  1018.6hPa West 0.9mph /  1.4km/h 6mph /  9.7km/h 58% 0in /  0.0mm 0 W/m2
22:46 68.7 °F /  20.4 °C 53.4 °F /  11.9 °C 30.1in /  1018.6hPa West 2.9mph /  4.7km/h 3mph /  4.8km/h 58% 0in /  0.0mm 0 W/m2
22:51 68.5 °F /  20.3 °C 53.2 °F /  11.8 °C 30.1in /  1018.6hPa WSW 2mph /  3.2km/h 6mph /  9.7km/h 58% 0in /  0.0mm 0 W/m2
22:56 68.4 °F /  20.2 °C 53.4 °F /  11.9 °C 30.1in /  1018.6hPa West 2mph /  3.2km/h 3mph /  4.8km/h 59% 0in /  0.0mm 0 W/m2
23:01 68.4 °F /  20.2 °C 53.4 °F /  11.9 °C 30.1in /  1018.6hPa West 2mph /  3.2km/h 3mph /  4.8km/h 59% 0in /  0.0mm 0 W/m2
23:06 68.2 °F /  20.1 °C 53.2 °F /  11.8 °C 30.1in /  1018.6hPa West 2.9mph /  4.7km/h 3mph /  4.8km/h 59% 0in /  0.0mm 0 W/m2
23:11 67.8 °F /  19.9 °C 53.4 °F /  11.9 °C 30.1in /  1018.6hPa West 2mph /  3.2km/h 2mph /  3.2km/h 60% 0in /  0.0mm 0 W/m2
23:16 67.8 °F /  19.9 °C 53.4 °F /  11.9 °C 30.1in /  1019.0hPa West 2mph /  3.2km/h 3mph /  4.8km/h 60% 0in /  0.0mm 0 W/m2
23:21 67.6 °F /  19.8 °C 53.2 °F /  11.8 °C 30.1in /  1019.0hPa West 2mph /  3.2km/h 2mph /  3.2km/h 60% 0in /  0.0mm 0 W/m2
23:26 67.5 °F /  19.7 °C 53.1 °F /  11.7 °C 30.1in /  1019.0hPa West 2.9mph /  4.7km/h 3mph /  4.8km/h 60% 0in /  0.0mm 0 W/m2
23:32 67.3 °F /  19.6 °C 52.9 °F /  11.6 °C 30.1in /  1019.0hPa WSW 0.9mph /  1.4km/h 4mph /  6.4km/h 60% 0in /  0.0mm 0 W/m2
23:37 67.3 °F /  19.6 °C 52.9 °F /  11.6 °C 30.1in /  1019.0hPa WSW 0.9mph /  1.4km/h 2mph /  3.2km/h 60% 0in /  0.0mm 0 W/m2
23:42 67.3 °F /  19.6 °C 52.9 °F /  11.6 °C 30.1in /  1019.0hPa West 2mph /  3.2km/h 2mph /  3.2km/h 60% 0in /  0.0mm 0 W/m2
23:47 66.9 °F /  19.4 °C 52.5 °F /  11.4 °C 30.1in /  1019.0hPa West 0.9mph /  1.4km/h 3mph /  4.8km/h 60% 0in /  0.0mm 0 W/m2
23:52 66.7 °F /  19.3 °C 52.9 °F /  11.6 °C 30.1in /  1019.0hPa West 2mph /  3.2km/h 3mph /  4.8km/h 61% 0in /  0.0mm 0 W/m2
23:57 66.6 °F /  19.2 °C 52.7 °F /  11.5 °C 30.1in /  1019.0hPa WSW 4mph /  6.4km/h 5mph /  8km/h 61% 0in /  0.0mm 0 W/m2
Juneau County Weather
Compliments of Weather Underground - 4 mb